West Farmington, Ohio
Current Conditions -  °F | °C
As of 6:51 AM on Friday 19 Dec 2014 (Local Time) from KYNG Reporting Station
Overcast Overcast  
Wind Chill: -7°   Ceiling: 700
Heat Index: -2°   Visibility: 10mi
Dew Point: -3°   Wind: 9mph
Humidity: 92%   Direction: 310°NW
Pressure: 30.16"   Gusts: NA
Location:  41.39°N, 80.97°W
Report Text: KYNG 191151Z 31008KT 10SM BKN007 OVC016 M02/M03 A3016 RMK AO2 SNE41 SLP228 60003 70005 I6001 T10221033 11017 21022 53011
Loading
Personal Weather Stations






























Interactive Weather Map New forecast layout! Learn more

10-Day Weather Forecast

Advertisements
Track Severe Weather on mobile